Meath Environmental Platform

Observations for Trim Market St

Time AQI Temp °C Hum % Pres Pa CO μg/m³ H₂S μg/m³ NO μg/m³ NO₂ μg/m³ O₃ μg/m³ SO₂ μg/m³ PM1 μg/m³ PM2.5 μg/m³ PM10 μg/m³
Wednesday 26 August 2026
10:29 2 18.6 83 2,147,483,647 0.29 0 0.9 16.46 47.92 0 7.84 11.35 15.8
10:25 2 18.5 83 2,147,483,647 0.29 0 0.96 14.8 37.2 0 8.55 10.87 16.34
10:23 2 18.4 83 2,147,483,647 0.3 0 1.01 16.2 33.76 0 7.13 9 13.04
10:22 2 18.4 83 2,147,483,647 0.32 0 1.19 18.8 35.82 0 7.84 9 13.04
10:19 2 18.4 83 2,147,483,647 0.3 0 1.44 20.04 32.73 0 8.55 9.93 15.23
10:11 2 18.2 83 2,147,483,647 0.37 0 1.37 29.49 29.85 0 8.55 10.39 15.23
10:10 2 18.2 83 2,147,483,647 0.45 0 1.36 34.32 27.3 0 9.26 10.38 14.67
10:09 2 18.2 83 2,147,483,647 0.5 0 1.62 24.53 31.26 0 10.69 11.32 16.87
10:08 2 18.1 83 2,147,483,647 1.52 1.21 1.64 27.84 30.31 0 8.55 10.39 15.23
10:06 2 18.1 83 2,147,483,647 0.33 0 1.26 26.09 32.95 0 7.13 8.99 14.13
10:05 2 18.1 83 2,147,483,647 0.3 0 1.55 29.38 30.34 0 7.84 9.93 14.68
10:03 2 18 83 2,147,483,647 0.28 0 1.71 22.87 33.34 0 7.13 8.06 13.03
10:02 2 18 83 2,147,483,647 0.33 0 1.75 38.86 23.94 0 5.7 7.6 13.04
10:01 2 18 83 2,147,483,647 0.34 0 1.86 26.28 30.18 0 7.84 8.53 13.59
09:59 2 18 83 2,147,483,647 0.36 0 1.88 20.95 31.78 0 7.13 9.01 15.25
09:56 2 17.9 83 2,147,483,647 0.36 0 1.34 22.03 33.01 0 7.84 9.94 14.7
09:55 2 17.9 83 2,147,483,647 0.27 0 1.34 14 37.37 0 5.7 7.6 11.39
09:54 2 17.9 83 2,147,483,647 0.26 0 1.07 15.15 39.79 0 6.41 7.14 10.84
09:50 2 17.9 83 2,147,483,647 0.25 0 1.01 13.12 35.58 0 7.13 9.48 13.6
09:41 2 17.9 83 2,147,483,647 1.05 0 1.31 16.24 37.04 0 6.41 7.12 12.48